Time;durP1;ratioP1;P1;durP2;ratioP2;P2;SDS_P1;SDS_P2;PMS_P1;PMS_P2;Temp;Humidity;BMP_temperature;BMP_pressure;BME280_temperature;BME280_humidity;BME280_pressure;Samples;Min_cycle;Max_cycle;Signal;HPM_P1;HPM_P2
2021/01/08 00:01:41;;;;;;;362.40;226.38;;;231.00;1766.40;;;;;;4956897;29;20074;-69
2021/01/08 00:04:06;;;;;;;351.35;220.98;;;231.30;1740.80;;;;;;4956069;28;20106;-69
2021/01/08 00:06:34;;;;;;;353.17;226.70;;;230.90;1766.40;;;;;;4957291;28;20162;-70
2021/01/08 00:08:59;;;;;;;377.52;238.60;;;230.70;1817.60;;;;;;4957246;28;20517;-67
2021/01/08 00:11:26;;;;;;;430.30;276.65;;;230.70;1792.00;;;;;;4957108;28;20066;-68
2021/01/08 00:13:52;;;;;;;383.23;240.63;;;230.50;1843.20;;;;;;4957001;28;20106;-70
2021/01/08 00:16:18;;;;;;;385.27;247.23;;;230.90;1792.00;;;;;;4956702;28;20027;-71
2021/01/08 00:18:44;;;;;;;380.83;248.00;;;231.00;1766.40;;;;;;4956632;29;20023;-69
2021/01/08 00:21:11;;;;;;;343.17;224.82;;;231.00;1792.00;;;;;;4957002;29;20028;-68
2021/01/08 00:23:36;;;;;;;338.33;216.32;;;230.70;1843.20;;;;;;4956548;29;20043;-69
2021/01/08 00:26:02;;;;;;;328.35;210.80;;;230.90;1792.00;;;;;;4955537;28;20057;-68
2021/01/08 00:28:28;;;;;;;318.02;202.52;;;231.10;1766.40;;;;;;4956556;28;20079;-69
2021/01/08 00:30:53;;;;;;;305.17;193.10;;;231.10;1766.40;;;;;;4955639;28;20043;-68
2021/01/08 00:33:19;;;;;;;308.92;189.02;;;231.20;1766.40;;;;;;4956675;29;20019;-67
2021/01/08 00:35:45;;;;;;;287.23;173.18;;;231.30;1740.80;;;;;;4956698;28;20497;-67
2021/01/08 00:38:11;;;;;;;308.63;183.63;;;230.70;1792.00;;;;;;4956442;28;20027;-67
2021/01/08 00:40:37;;;;;;;311.42;182.93;;;205.70;1868.80;;;;;;4956759;28;20538;-71
2021/01/08 00:43:03;;;;;;;341.40;208.10;;;205.70;1868.80;;;;;;4956691;28;20027;-69
2021/01/08 00:45:29;;;;;;;302.88;182.98;;;205.60;1894.40;;;;;;4956244;28;20417;-68
2021/01/08 00:47:55;;;;;;;255.68;160.80;;;205.50;1894.40;;;;;;4963881;28;20018;-70
2021/01/08 00:50:21;;;;;;;340.58;200.15;;;205.60;1894.40;;;;;;4975676;28;20127;-70
2021/01/08 00:52:47;;;;;;;342.45;204.32;;;230.50;1868.80;;;;;;4975786;28;20385;-69
2021/01/08 00:55:13;;;;;;;275.38;174.02;;;230.80;1843.20;;;;;;4974218;28;20035;-71
2021/01/08 00:57:39;;;;;;;288.48;175.07;;;230.70;1843.20;;;;;;4976022;28;20034;-68
2021/01/08 01:00:06;;;;;;;284.52;181.63;;;230.70;1843.20;;;;;;4975277;28;20033;-69
2021/01/08 01:02:35;;;;;;;267.30;172.40;;;230.70;1843.20;;;;;;4975503;28;20019;-67
2021/01/08 01:05:02;;;;;;;258.25;160.50;;;230.80;1817.60;;;;;;4975339;28;20031;-67
2021/01/08 01:07:28;;;;;;;271.25;161.50;;;230.80;1817.60;;;;;;4974847;28;20023;-69
2021/01/08 01:09:54;;;;;;;250.80;154.70;;;230.90;1817.60;;;;;;4939710;28;20521;-68
2021/01/08 01:12:19;;;;;;;257.92;159.35;;;230.90;1817.60;;;;;;4949223;28;20095;-71
2021/01/08 01:14:45;;;;;;;250.57;154.63;;;230.70;1843.20;;;;;;4936710;29;20054;-68
2021/01/08 01:17:11;;;;;;;283.33;175.65;;;230.90;1817.60;;;;;;4937838;29;20028;-68
2021/01/08 01:19:37;;;;;;;254.25;160.23;;;231.10;1792.00;;;;;;4956016;28;20493;-68
2021/01/08 01:22:03;;;;;;;297.85;181.10;;;230.90;1817.60;;;;;;4955584;28;20057;-67
2021/01/08 01:24:29;;;;;;;298.30;189.15;;;231.20;1792.00;;;;;;4940408;28;20146;-68
2021/01/08 01:26:56;;;;;;;312.08;201.18;;;231.20;1766.40;;;;;;4936509;29;20036;-70
2021/01/08 01:29:26;;;;;;;287.58;193.70;;;231.30;1766.40;;;;;;4936676;29;20027;-70
2021/01/08 01:31:52;;;;;;;319.90;201.00;;;231.30;1766.40;;;;;;4936363;29;20087;-70
2021/01/08 01:34:18;;;;;;;298.65;193.00;;;231.30;1766.40;;;;;;4936461;29;20038;-70
2021/01/08 01:36:45;;;;;;;277.83;179.07;;;256.00;1766.40;;;;;;4936564;29;20514;-70
2021/01/08 01:39:14;;;;;;;267.35;173.43;;;256.10;1740.80;;;;;;4936355;29;20482;-70
2021/01/08 01:41:41;;;;;;;284.58;181.82;;;256.10;1740.80;;;;;;4936581;29;20092;-70
2021/01/08 01:44:07;;;;;;;283.63;181.52;;;256.10;1740.80;;;;;;4936327;29;20475;-70
2021/01/08 01:46:33;;;;;;;283.00;184.77;;;256.00;1740.80;;;;;;4936280;29;20046;-70
2021/01/08 01:48:59;;;;;;;309.38;191.68;;;256.00;1740.80;;;;;;4935068;29;20487;-70
2021/01/08 01:51:26;;;;;;;241.93;156.88;;;256.00;1740.80;;;;;;4936348;29;20093;-70
2021/01/08 01:53:52;;;;;;;181.00;120.22;;;256.20;1740.80;;;;;;4936006;29;20471;-70
2021/01/08 01:56:19;;;;;;;159.30;108.80;;;256.20;1715.20;;;;;;4936445;29;20040;-70
2021/01/08 01:58:44;;;;;;;135.55;91.60;;;256.40;1715.20;;;;;;4936255;29;20031;-70
2021/01/08 02:01:10;;;;;;;142.10;90.70;;;256.30;1715.20;;;;;;4935836;29;20028;-71
2021/01/08 02:03:51;;;;;;;147.07;94.30;;;256.40;1715.20;;;;;;4936179;29;20031;-71
2021/01/08 02:06:25;;;;;;;149.07;101.75;;;256.50;1715.20;;;;;;4934950;29;20495;-71
2021/01/08 02:08:59;;;;;;;185.95;128.10;;;256.30;1740.80;;;;;;4936209;29;20050;-71
2021/01/08 02:11:27;;;;;;;245.80;155.90;;;256.10;1792.00;;;;;;4936206;29;20075;-73
2021/01/08 02:14:12;;;;;;;260.42;172.70;;;256.00;1792.00;;;;;;4935701;29;20502;-71
2021/01/08 02:16:40;;;;;;;280.33;183.65;;;231.20;1792.00;;;;;;4935884;29;20032;-71
2021/01/08 02:19:11;;;;;;;310.55;204.15;;;231.30;1817.60;;;;;;4935750;29;20024;-70
2021/01/08 02:21:43;;;;;;;316.50;207.48;;;256.10;1766.40;;;;;;4935673;29;20098;-70
2021/01/08 02:24:18;;;;;;;322.90;209.70;;;256.30;1766.40;;;;;;4935499;29;20126;-70
2021/01/08 02:26:44;;;;;;;320.08;206.43;;;256.30;1740.80;;;;;;4934981;29;20050;-70
2021/01/08 02:29:11;;;;;;;339.90;220.07;;;256.30;1740.80;;;;;;4935793;29;20028;-69
2021/01/08 02:31:38;;;;;;;314.17;203.68;;;256.00;1792.00;;;;;;4935518;29;20027;-70
2021/01/08 02:34:05;;;;;;;319.55;208.75;;;231.30;1792.00;;;;;;4935719;29;20020;-69
2021/01/08 02:36:32;;;;;;;316.40;204.57;;;256.10;1766.40;;;;;;4935472;29;20027;-70
2021/01/08 02:38:58;;;;;;;311.58;201.50;;;231.30;1792.00;;;;;;4935321;29;20031;-68
2021/01/08 02:41:25;;;;;;;300.52;198.38;;;256.10;1766.40;;;;;;4935893;29;20035;-70
2021/01/08 02:43:52;;;;;;;317.02;202.75;;;256.00;1766.40;;;;;;4935615;29;20019;-71
2021/01/08 02:46:18;;;;;;;291.58;193.57;;;231.30;1766.40;;;;;;4935421;29;20042;-70
2021/01/08 02:48:43;;;;;;;274.48;179.38;;;231.30;1792.00;;;;;;4935449;29;20032;-71
2021/01/08 02:51:10;;;;;;;244.77;159.93;;;231.20;1792.00;;;;;;4935652;29;20028;-70
2021/01/08 02:53:38;;;;;;;230.30;153.45;;;231.20;1792.00;;;;;;4935093;29;20054;-71
2021/01/08 02:56:09;;;;;;;200.23;132.85;;;231.20;1792.00;;;;;;4935647;29;20159;-70
2021/01/08 02:58:36;;;;;;;191.57;128.50;;;231.30;1792.00;;;;;;4935558;29;20024;-71
2021/01/08 03:01:03;;;;;;;196.80;131.90;;;231.10;1792.00;;;;;;4935213;29;20321;-71
2021/01/08 03:03:29;;;;;;;198.00;128.93;;;231.20;1766.40;;;;;;4934120;29;20406;-71
2021/01/08 03:05:58;;;;;;;182.45;120.00;;;231.10;1792.00;;;;;;4935175;29;20039;-71
2021/01/08 03:08:25;;;;;;;174.38;116.68;;;231.10;1817.60;;;;;;4935418;29;20026;-70
2021/01/08 03:10:50;;;;;;;183.38;119.97;;;231.30;1766.40;;;;;;4934277;29;20494;-69
2021/01/08 03:13:17;;;;;;;165.13;110.80;;;256.00;1766.40;;;;;;4935531;29;20024;-69
2021/01/08 03:15:43;;;;;;;147.38;103.70;;;231.30;1766.40;;;;;;4935049;29;20028;-69
2021/01/08 03:18:08;;;;;;;147.98;101.28;;;230.90;1843.20;;;;;;4935261;29;20466;-68
2021/01/08 03:20:34;;;;;;;146.68;98.80;;;231.10;1817.60;;;;;;4935119;29;20479;-69
2021/01/08 03:23:03;;;;;;;143.60;99.40;;;231.20;1792.00;;;;;;4934706;29;20078;-69
2021/01/08 03:25:29;;;;;;;159.77;110.18;;;230.80;1817.60;;;;;;4935271;29;20039;-69
2021/01/08 03:27:55;;;;;;;176.35;117.63;;;205.60;1945.60;;;;;;4935044;29;20386;-69
2021/01/08 03:30:21;;;;;;;186.02;127.65;;;230.40;1920.00;;;;;;4935226;29;20028;-69
2021/01/08 03:32:46;;;;;;;187.27;121.85;;;205.60;1971.20;;;;;;4934981;29;20034;-72
2021/01/08 03:35:12;;;;;;;197.95;132.15;;;230.40;1945.60;;;;;;4935174;29;20107;-71
2021/01/08 03:37:38;;;;;;;193.60;127.38;;;230.60;1920.00;;;;;;4935019;29;20032;-69
2021/01/08 03:40:06;;;;;;;178.93;119.78;;;205.70;1945.60;;;;;;4938479;29;20043;-67
2021/01/08 03:42:32;;;;;;;197.43;127.45;;;205.60;1945.60;;;;;;4937466;29;20042;-68
2021/01/08 03:44:57;;;;;;;179.93;119.00;;;205.70;1945.60;;;;;;4938531;29;20039;-67
2021/01/08 03:47:23;;;;;;;182.27;125.57;;;205.70;1920.00;;;;;;4938336;29;20490;-68
2021/01/08 03:49:49;;;;;;;195.82;132.02;;;205.50;1971.20;;;;;;4938401;29;20114;-70
2021/01/08 03:52:14;;;;;;;211.73;138.88;;;205.70;1945.60;;;;;;4938419;29;20042;-69
2021/01/08 03:54:40;;;;;;;229.75;143.00;;;205.70;1945.60;;;;;;4938201;29;20036;-69
2021/01/08 03:57:06;;;;;;;212.93;139.18;;;205.50;1971.20;;;;;;4938642;29;20020;-68
2021/01/08 03:59:31;;;;;;;178.77;121.47;;;230.70;1894.40;;;;;;4938236;29;20483;-70
2021/01/08 04:01:57;;;;;;;188.15;124.95;;;230.90;1843.20;;;;;;4938371;29;20059;-70
2021/01/08 04:04:23;;;;;;;181.05;123.53;;;230.90;1843.20;;;;;;4937921;29;20034;-69
2021/01/08 04:06:50;;;;;;;183.82;125.47;;;231.10;1817.60;;;;;;4938477;29;20497;-70
2021/01/08 04:09:17;;;;;;;209.52;136.05;;;231.20;1792.00;;;;;;4937933;29;20020;-70
2021/01/08 04:11:42;;;;;;;195.02;136.30;;;231.10;1843.20;;;;;;4938205;29;20051;-70
2021/01/08 04:14:08;;;;;;;192.20;135.25;;;231.10;1843.20;;;;;;4937802;29;20442;-70
2021/01/08 04:16:34;;;;;;;194.30;134.27;;;231.20;1843.20;;;;;;4937733;29;20032;-69
2021/01/08 04:19:00;;;;;;;162.68;112.93;;;231.20;1817.60;;;;;;4938169;29;20032;-70
2021/01/08 04:21:26;;;;;;;158.55;113.18;;;231.30;1792.00;;;;;;4937898;29;20034;-70
2021/01/08 04:23:52;;;;;;;158.18;111.57;;;231.30;1792.00;;;;;;4937578;29;20044;-70
2021/01/08 04:26:17;;;;;;;169.32;116.60;;;231.10;1817.60;;;;;;4937594;29;20399;-70
2021/01/08 04:28:43;;;;;;;155.98;109.05;;;231.10;1843.20;;;;;;4937806;29;20462;-69
2021/01/08 04:31:09;;;;;;;157.00;107.63;;;231.20;1843.20;;;;;;4937549;29;20035;-70
2021/01/08 04:33:35;;;;;;;148.20;99.10;;;231.20;1843.20;;;;;;4937765;29;20094;-69
2021/01/08 04:36:01;;;;;;;149.98;100.95;;;231.20;1843.20;;;;;;4937544;29;20039;-68
2021/01/08 04:38:27;;;;;;;144.82;100.68;;;231.30;1817.60;;;;;;4937951;29;20030;-68
2021/01/08 04:40:53;;;;;;;148.98;105.97;;;231.20;1843.20;;;;;;4937360;29;20114;-68
2021/01/08 04:43:19;;;;;;;155.00;111.28;;;231.20;1817.60;;;;;;4937467;29;20059;-70
2021/01/08 04:45:44;;;;;;;164.88;115.35;;;231.10;1843.20;;;;;;4937550;29;20047;-71
2021/01/08 04:48:13;;;;;;;163.65;112.55;;;231.10;1843.20;;;;;;4937249;29;20020;-70
2021/01/08 04:50:43;;;;;;;159.10;109.18;;;230.90;1843.20;;;;;;4936969;29;20027;-71
2021/01/08 04:53:09;;;;;;;148.87;107.20;;;231.20;1843.20;;;;;;4937151;29;20095;-68
2021/01/08 04:55:36;;;;;;;144.95;101.00;;;231.20;1817.60;;;;;;4937346;29;20028;-70
2021/01/08 04:58:06;;;;;;;133.85;93.22;;;231.30;1792.00;;;;;;4937167;29;20026;-70
2021/01/08 05:00:33;;;;;;;130.05;88.15;;;231.30;1792.00;;;;;;4937326;29;20024;-69
2021/01/08 05:02:59;;;;;;;147.63;94.30;;;231.30;1792.00;;;;;;4936937;29;20636;-69
2021/01/08 05:05:25;;;;;;;133.68;87.07;;;231.10;1817.60;;;;;;4937074;29;20127;-69
2021/01/08 05:07:50;;;;;;;120.28;80.35;;;231.00;1843.20;;;;;;4937208;29;20486;-69
2021/01/08 05:10:16;;;;;;;105.10;71.53;;;231.00;1817.60;;;;;;4936845;29;20382;-69
2021/01/08 05:12:43;;;;;;;102.50;69.60;;;231.10;1817.60;;;;;;4937141;29;20071;-69
2021/01/08 05:15:11;;;;;;;87.45;61.97;;;231.20;1817.60;;;;;;4936831;29;20032;-69
2021/01/08 05:17:39;;;;;;;71.55;49.83;;;231.00;1843.20;;;;;;4936966;29;20032;-66
2021/01/08 05:20:05;;;;;;;67.43;45.35;;;231.10;1843.20;;;;;;4936793;29;20027;-66
2021/01/08 05:22:32;;;;;;;50.92;38.03;;;231.10;1843.20;;;;;;4936620;29;20032;-65
2021/01/08 05:25:15;;;;;;;67.55;44.63;;;231.10;1817.60;;;;;;4936423;29;20040;-66
2021/01/08 05:27:42;;;;;;;68.15;43.35;;;231.20;1817.60;;;;;;4936733;29;20028;-68
2021/01/08 05:30:23;;;;;;;54.63;37.75;;;230.90;1868.80;;;;;;4936816;29;20051;-68
2021/01/08 05:32:56;;;;;;;48.53;32.05;;;231.00;1843.20;;;;;;4936469;29;20032;-68
2021/01/08 05:35:23;;;;;;;43.10;28.15;;;231.00;1843.20;;;;;;4936446;29;20031;-67
2021/01/08 05:37:51;;;;;;;40.63;28.35;;;230.80;1868.80;;;;;;4936781;29;20030;-67
2021/01/08 05:40:24;;;;;;;38.67;27.17;;;231.10;1843.20;;;;;;4936574;29;20398;-67
2021/01/08 05:42:57;;;;;;;37.25;25.20;;;231.10;1843.20;;;;;;4936686;29;20028;-69
2021/01/08 05:45:24;;;;;;;39.45;24.92;;;231.10;1817.60;;;;;;4936188;29;20039;-70
2021/01/08 05:47:51;;;;;;;37.20;25.83;;;231.30;1792.00;;;;;;4936067;29;20028;-66
2021/01/08 05:50:20;;;;;;;39.10;25.90;;;231.20;1817.60;;;;;;4936338;29;20173;-67
2021/01/08 05:52:50;;;;;;;44.47;30.02;;;231.10;1817.60;;;;;;4936129;29;20024;-66
2021/01/08 05:55:16;;;;;;;41.75;30.30;;;231.10;1817.60;;;;;;4936198;29;20036;-66
2021/01/08 05:57:42;;;;;;;48.45;34.13;;;231.00;1843.20;;;;;;4936101;29;20035;-66
2021/01/08 06:00:09;;;;;;;44.55;32.30;;;231.10;1843.20;;;;;;4936203;29;20051;-67
2021/01/08 06:02:35;;;;;;;47.22;35.55;;;231.30;1817.60;;;;;;4935141;29;20019;-68
2021/01/08 06:05:04;;;;;;;44.90;33.53;;;231.20;1817.60;;;;;;4936309;29;20519;-66
2021/01/08 06:07:35;;;;;;;60.00;43.55;;;231.10;1843.20;;;;;;4935948;29;20439;-70
2021/01/08 06:10:03;;;;;;;45.15;31.90;;;231.10;1843.20;;;;;;4936120;29;20399;-67
2021/01/08 06:12:37;;;;;;;41.03;29.05;;;230.90;1868.80;;;;;;4935945;29;20119;-66
2021/01/08 06:15:06;;;;;;;30.08;22.38;;;230.90;1868.80;;;;;;4935904;29;20533;-67
2021/01/08 06:17:33;;;;;;;25.10;19.83;;;231.00;1843.20;;;;;;4935983;29;20024;-68
2021/01/08 06:20:02;;;;;;;27.15;20.90;;;230.80;1894.40;;;;;;4935890;29;20051;-69
2021/01/08 06:22:35;;;;;;;34.88;24.10;;;230.50;1920.00;;;;;;4935276;29;20039;-67
2021/01/08 06:25:01;;;;;;;148.75;87.57;;;230.50;1920.00;;;;;;4935755;29;20066;-68
2021/01/08 06:27:32;;;;;;;77.05;50.28;;;230.90;1868.80;;;;;;4935653;29;20478;-68
2021/01/08 06:30:00;;;;;;;;;;;231.00;1843.20;;;;;;4934787;29;20383;-69
2021/01/08 06:32:29;;;;;;;171.93;118.90;;;230.50;1920.00;;;;;;4935660;29;20297;-69
2021/01/08 06:35:07;;;;;;;78.68;62.45;;;230.80;1894.40;;;;;;4935822;29;20027;-68
2021/01/08 06:37:43;;;;;;;43.45;38.80;;;230.90;1894.40;;;;;;4935593;29;20027;-67
2021/01/08 06:40:10;;;;;;;32.17;28.05;;;231.00;1843.20;;;;;;4935471;29;20063;-67
2021/01/08 06:42:46;;;;;;;33.50;26.25;;;230.90;1868.80;;;;;;4935601;29;20028;-67
2021/01/08 06:45:17;;;;;;;37.50;33.03;;;231.00;1843.20;;;;;;4934181;29;20511;-68
2021/01/08 06:47:47;;;;;;;39.40;32.85;;;230.90;1868.80;;;;;;4935469;29;20490;-67
2021/01/08 06:50:20;;;;;;;38.60;29.63;;;230.80;1868.80;;;;;;4935688;29;20067;-69
2021/01/08 06:52:49;;;;;;;35.75;26.02;;;230.80;1868.80;;;;;;4935100;29;20032;-68
2021/01/08 06:55:17;;;;;;;37.60;28.55;;;230.90;1843.20;;;;;;4935324;29;20039;-67
2021/01/08 06:58:01;;;;;;;33.22;25.20;;;230.90;1868.80;;;;;;4935233;29;20091;-67
2021/01/08 07:00:27;;;;;;;35.25;27.67;;;230.80;1868.80;;;;;;4935218;29;20055;-68
2021/01/08 07:02:59;;;;;;;31.40;24.15;;;230.80;1843.20;;;;;;4935412;29;20120;-64
2021/01/08 07:05:25;;;;;;;26.02;16.02;;;231.00;1817.60;;;;;;4935067;29;20123;-70
2021/01/08 07:07:53;;;;;;;36.28;23.55;;;230.80;1792.00;;;;;;4935321;29;20103;-69
2021/01/08 07:10:19;;;;;;;29.63;20.38;;;230.90;1792.00;;;;;;4935122;29;20039;-69
2021/01/08 07:12:45;;;;;;;37.47;25.60;;;230.60;1817.60;;;;;;4935516;29;20019;-69
2021/01/08 07:15:12;;;;;;;35.30;27.20;;;230.60;1817.60;;;;;;4938930;29;20035;-71
2021/01/08 07:17:40;;;;;;;24.30;19.20;;;230.80;1792.00;;;;;;4937624;29;20031;-70
2021/01/08 07:20:07;;;;;;;36.88;25.50;;;230.70;1766.40;;;;;;4938049;29;20040;-70
2021/01/08 07:22:40;;;;;;;38.60;24.98;;;230.50;1792.00;;;;;;4938212;29;20054;-70
2021/01/08 07:25:14;;;;;;;33.95;23.48;;;205.60;1843.20;;;;;;4938746;29;20043;-70
2021/01/08 07:27:43;;;;;;;17.90;12.23;;;205.60;1843.20;;;;;;4938706;29;20024;-69
2021/01/08 07:30:10;;;;;;;23.73;15.60;;;205.60;1843.20;;;;;;4938951;29;20098;-71
2021/01/08 07:32:38;;;;;;;32.88;20.60;;;205.70;1843.20;;;;;;4938725;29;20028;-69
2021/01/08 07:35:17;;;;;;;29.45;20.00;;;230.50;1817.60;;;;;;4938436;29;20466;-70
2021/01/08 07:38:07;;;;;;;33.40;21.67;;;230.50;1843.20;;;;;;4938829;29;20023;-70
2021/01/08 07:40:37;;;;;;;29.52;18.50;;;205.60;1843.20;;;;;;4938892;29;20505;-69
2021/01/08 07:43:10;;;;;;;27.73;18.38;;;205.60;1843.20;;;;;;4938477;29;20036;-69
2021/01/08 07:45:52;;;;;;;20.35;15.00;;;205.50;1843.20;;;;;;4938562;29;20042;-69
2021/01/08 07:48:27;;;;;;;33.20;21.50;;;205.50;1817.60;;;;;;4938219;29;20038;-67
2021/01/08 07:50:58;;;;;;;34.53;23.52;;;205.50;1843.20;;;;;;4938407;29;20027;-70
2021/01/08 07:53:55;;;;;;;31.00;21.60;;;205.40;1843.20;;;;;;4938377;29;20043;-68
2021/01/08 07:56:21;;;;;;;30.05;18.80;;;205.30;1868.80;;;;;;4940863;29;20149;-67
2021/01/08 07:59:04;;;;;;;21.83;14.45;;;205.30;1868.80;;;;;;4948193;29;20078;-69
2021/01/08 08:01:31;;;;;;;11.77;8.05;;;205.40;1817.60;;;;;;4946691;29;20031;-66
2021/01/08 08:04:04;;;;;;;59.55;53.25;;;205.30;1843.20;;;;;;4946328;28;20371;-67
2021/01/08 08:06:31;;;;;;;18.60;12.60;;;205.40;1817.60;;;;;;4946373;28;20493;-67
2021/01/08 08:08:59;;;;;;;132.43;71.22;;;205.40;1817.60;;;;;;4948267;29;20377;-68
2021/01/08 08:11:35;;;;;;;54.67;32.80;;;205.20;1868.80;;;;;;4946955;29;20024;-65
2021/01/08 08:14:02;;;;;;;27.10;16.75;;;205.50;1868.80;;;;;;4942364;29;20019;-68
2021/01/08 08:16:33;;;;;;;20.05;12.88;;;205.60;1817.60;;;;;;4941852;28;20038;-68
2021/01/08 08:18:59;;;;;;;21.13;12.53;;;205.40;1817.60;;;;;;4946683;28;20473;-67
2021/01/08 08:21:25;;;;;;;19.38;13.93;;;230.40;1766.40;;;;;;4945861;28;20250;-67
2021/01/08 08:23:52;;;;;;;26.67;16.80;;;205.40;1817.60;;;;;;4946855;28;20121;-66
2021/01/08 08:26:18;;;;;;;24.45;14.60;;;205.60;1792.00;;;;;;4946588;28;20042;-64
2021/01/08 08:28:43;;;;;;;45.42;31.95;;;205.70;1766.40;;;;;;4945614;28;20103;-66
2021/01/08 08:31:12;;;;;;;24.17;16.80;;;205.50;1792.00;;;;;;4947619;28;20035;-65
2021/01/08 08:33:43;;;;;;;36.25;25.27;;;205.40;1792.00;;;;;;4947160;29;20078;-68
2021/01/08 08:36:09;;;;;;;39.15;27.08;;;205.40;1792.00;;;;;;4946002;29;20024;-65
2021/01/08 08:38:35;;;;;;;54.55;35.60;;;205.60;1792.00;;;;;;4946585;28;20019;-65
2021/01/08 08:41:12;;;;;;;22.15;15.65;;;230.40;1740.80;;;;;;4947518;29;20471;-67
2021/01/08 08:43:38;;;;;;;36.58;25.73;;;205.30;1817.60;;;;;;4947124;29;20486;-66
2021/01/08 08:46:03;;;;;;;45.03;32.60;;;180.00;1920.00;;;;;;4945206;28;20039;-66
2021/01/08 08:48:29;;;;;;;92.55;82.50;;;180.10;1945.60;;;;;;4947329;28;20034;-68
2021/01/08 08:50:55;;;;;;;40.17;27.05;;;205.10;1894.40;;;;;;4951664;29;20474;-68
2021/01/08 08:53:21;;;;;;;31.67;23.05;;;205.30;1868.80;;;;;;4947949;28;20023;-67
2021/01/08 08:55:49;;;;;;;28.45;22.35;;;205.50;1843.20;;;;;;4947140;29;20086;-68
2021/01/08 08:58:15;;;;;;;37.72;25.35;;;205.50;1817.60;;;;;;4946326;29;20020;-68
2021/01/08 09:00:43;;;;;;;34.13;24.58;;;205.70;1792.00;;;;;;4945559;28;20022;-67
2021/01/08 09:03:20;;;;;;;50.75;36.97;;;230.40;1843.20;;;;;;4953338;28;20102;-69
2021/01/08 09:05:49;;;;;;;64.80;43.85;;;230.50;1792.00;;;;;;4944812;28;20103;-68
2021/01/08 09:08:37;;;;;;;61.42;40.85;;;230.50;1792.00;;;;;;4936939;29;20036;-68
2021/01/08 09:11:17;;;;;;;47.25;32.38;;;230.40;1792.00;;;;;;4936864;29;20522;-68
2021/01/08 09:13:52;;;;;;;93.07;51.28;;;230.60;1792.00;;;;;;4936946;29;20027;-69
2021/01/08 09:16:28;;;;;;;69.40;39.72;;;230.60;1766.40;;;;;;4936750;29;20038;-69
2021/01/08 09:19:00;;;;;;;35.42;24.27;;;230.70;1766.40;;;;;;4936446;29;20030;-68
2021/01/08 09:21:33;;;;;;;;;;;230.70;1766.40;;;;;;4937274;29;20039;-68
2021/01/08 09:24:02;;;;;;;145.73;79.45;;;230.60;1740.80;;;;;;4936357;29;19918;-68
2021/01/08 09:26:30;;;;;;;71.25;47.05;;;230.40;1766.40;;;;;;4936577;29;20544;-68
2021/01/08 09:28:56;;;;;;;60.95;44.30;;;205.70;1792.00;;;;;;4936524;29;20359;-68
2021/01/08 09:31:43;;;;;;;94.75;60.47;;;205.50;1792.00;;;;;;4936634;29;20027;-68
2021/01/08 09:34:09;;;;;;;82.68;51.00;;;205.50;1817.60;;;;;;4936569;29;20032;-68
2021/01/08 09:36:36;;;;;;;78.93;47.40;;;205.70;1766.40;;;;;;4936265;29;20031;-69
2021/01/08 09:39:07;;;;;;;109.90;70.57;;;205.60;1766.40;;;;;;4936909;29;20036;-68
2021/01/08 09:41:37;;;;;;;90.20;55.90;;;205.60;1792.00;;;;;;4936427;29;20075;-67
2021/01/08 09:44:05;;;;;;;61.30;38.50;;;205.60;1792.00;;;;;;4936147;29;20115;-68
2021/01/08 09:46:32;;;;;;;63.67;44.08;;;205.40;1817.60;;;;;;4936265;29;20087;-68
2021/01/08 09:49:07;;;;;;;81.10;51.45;;;205.50;1792.00;;;;;;4936079;29;20054;-68
2021/01/08 09:51:33;;;;;;;93.53;65.68;;;205.50;1792.00;;;;;;4936199;29;20035;-69
2021/01/08 09:53:59;;;;;;;70.80;43.80;;;205.50;1792.00;;;;;;4936392;29;20039;-68
2021/01/08 09:56:24;;;;;;;30.90;22.63;;;205.30;1817.60;;;;;;4935004;29;20031;-68
2021/01/08 09:59:13;;;;;;;24.33;15.13;;;205.20;1817.60;;;;;;4935907;29;20028;-68
2021/01/08 10:01:58;;;;;;;31.70;20.00;;;205.40;1740.80;;;;;;4935914;29;20103;-68
2021/01/08 10:04:35;;;;;;;25.75;19.27;;;205.60;1715.20;;;;;;4935737;29;20020;-68
2021/01/08 10:07:03;;;;;;;98.60;69.80;;;205.60;1715.20;;;;;;4936116;29;20032;-68
2021/01/08 10:09:46;;;;;;;89.90;58.42;;;205.70;1740.80;;;;;;4935684;29;20024;-68
2021/01/08 10:12:12;;;;;;;101.82;71.07;;;205.50;1766.40;;;;;;4935859;29;20458;-68
2021/01/08 10:14:38;;;;;;;83.68;63.10;;;205.30;1792.00;;;;;;4935611;29;20421;-67
2021/01/08 10:17:11;;;;;;;49.45;35.15;;;205.60;1792.00;;;;;;4935924;29;20040;-67
2021/01/08 10:19:38;;;;;;;51.45;35.60;;;205.70;1766.40;;;;;;4935624;29;20043;-69
2021/01/08 10:22:04;;;;;;;38.55;28.42;;;230.40;1740.80;;;;;;4935499;29;20033;-67
2021/01/08 10:24:30;;;;;;;52.05;35.83;;;230.40;1715.20;;;;;;4934105;29;20059;-68
2021/01/08 10:26:56;;;;;;;49.58;34.33;;;205.60;1715.20;;;;;;4934283;29;20040;-69
2021/01/08 10:29:39;;;;;;;28.30;21.77;;;205.60;1740.80;;;;;;4935689;29;20024;-67
2021/01/08 10:32:14;;;;;;;51.60;36.85;;;205.40;1740.80;;;;;;4935486;29;20107;-68
2021/01/08 10:34:44;;;;;;;62.20;44.72;;;205.30;1740.80;;;;;;4935305;29;20110;-68
2021/01/08 10:37:19;;;;;;;122.05;93.40;;;205.30;1740.80;;;;;;4935703;29;20119;-68
2021/01/08 10:39:46;;;;;;;70.88;54.03;;;205.10;1766.40;;;;;;4934430;29;20028;-68
2021/01/08 10:42:12;;;;;;;85.47;64.20;;;205.20;1740.80;;;;;;4935466;29;20032;-68
2021/01/08 10:44:38;;;;;;;91.90;62.00;;;205.20;1740.80;;;;;;4935306;29;20470;-68
2021/01/08 10:47:05;;;;;;;86.90;59.38;;;205.20;1740.80;;;;;;4935174;29;20048;-67
2021/01/08 10:49:30;;;;;;;97.53;67.35;;;204.80;1792.00;;;;;;4934917;29;20102;-68
2021/01/08 10:51:56;;;;;;;87.93;62.60;;;180.10;1843.20;;;;;;4935101;29;20062;-70
2021/01/08 10:54:21;;;;;;;117.45;76.43;;;205.00;1766.40;;;;;;4935532;29;20027;-68
2021/01/08 10:56:47;;;;;;;140.40;94.00;;;205.00;1766.40;;;;;;4935060;29;20027;-68
2021/01/08 10:59:13;;;;;;;144.98;95.38;;;204.80;1792.00;;;;;;4935289;29;20375;-68
2021/01/08 11:01:43;;;;;;;155.02;106.85;;;204.80;1817.60;;;;;;4935146;29;20028;-68
2021/01/08 11:04:10;;;;;;;166.05;116.20;;;180.10;1843.20;;;;;;4935349;29;20035;-69
2021/01/08 11:06:38;;;;;;;152.68;110.32;;;180.10;1817.60;;;;;;4935079;29;20035;-69
2021/01/08 11:09:07;;;;;;;152.90;103.80;;;204.80;1817.60;;;;;;4935236;29;20084;-68
2021/01/08 11:11:33;;;;;;;135.88;97.88;;;204.80;1792.00;;;;;;4935052;29;20386;-68
2021/01/08 11:14:00;;;;;;;152.73;109.50;;;204.90;1792.00;;;;;;4934924;29;20150;-68
2021/01/08 11:16:26;;;;;;;185.70;129.73;;;204.80;1792.00;;;;;;4935136;29;20355;-68
2021/01/08 11:18:55;;;;;;;214.57;145.32;;;204.90;1766.40;;;;;;4934903;29;20086;-68
2021/01/08 11:21:22;;;;;;;143.32;103.53;;;205.10;1766.40;;;;;;4935321;29;20071;-68
2021/01/08 11:23:49;;;;;;;146.52;102.00;;;204.80;1766.40;;;;;;4934486;29;20048;-69
2021/01/08 11:26:28;;;;;;;148.73;108.88;;;179.60;1843.20;;;;;;4934878;29;20064;-70
2021/01/08 11:28:54;;;;;;;293.85;198.05;;;179.90;1817.60;;;;;;4934847;29;20123;-69
2021/01/08 11:31:20;;;;;;;246.07;163.93;;;179.90;1817.60;;;;;;4934903;29;20111;-70
2021/01/08 11:33:45;;;;;;;213.45;146.38;;;180.10;1766.40;;;;;;4935089;29;20029;-69
2021/01/08 11:36:12;;;;;;;192.10;129.90;;;204.80;1766.40;;;;;;4934779;29;20386;-68
2021/01/08 11:38:39;;;;;;;182.23;123.05;;;179.70;1817.60;;;;;;4935126;29;20032;-69
2021/01/08 11:41:05;;;;;;;198.73;146.52;;;180.10;1766.40;;;;;;4933873;29;20550;-69
2021/01/08 11:43:30;;;;;;;193.25;136.00;;;180.10;1792.00;;;;;;4934926;29;20027;-70
2021/01/08 11:45:56;;;;;;;167.60;113.45;;;180.00;1792.00;;;;;;4934620;29;20490;-70
2021/01/08 11:48:22;;;;;;;176.70;120.38;;;179.70;1817.60;;;;;;4934952;29;20558;-69
2021/01/08 11:50:47;;;;;;;161.00;113.05;;;179.50;1868.80;;;;;;4934525;29;20027;-69
2021/01/08 11:53:13;;;;;;;158.20;110.65;;;179.50;1868.80;;;;;;4934828;29;20102;-69
2021/01/08 11:55:38;;;;;;;180.60;124.75;;;179.70;1868.80;;;;;;4934847;29;20126;-68
2021/01/08 11:58:04;;;;;;;183.82;134.93;;;179.60;1868.80;;;;;;4934688;29;20034;-68